createdAt,value
2023-05-24T00:00:45.629Z,1.8
2023-05-24T00:06:32.716Z,1.6
2023-05-24T00:12:17.614Z,1.6
2023-05-24T00:18:02.893Z,1.6
2023-05-24T00:23:47.989Z,1.4
2023-05-24T00:29:34.604Z,1.7
2023-05-24T00:35:19.492Z,1.4
2023-05-24T00:41:05.759Z,1.5
2023-05-24T00:46:50.713Z,1.7
2023-05-24T00:52:35.883Z,1.7
2023-05-24T00:58:20.662Z,1.6
2023-05-24T01:04:05.792Z,1.7
2023-05-24T01:09:55.853Z,1.7
2023-05-24T01:15:45.229Z,1.4
2023-05-24T01:21:37.734Z,1.6
2023-05-24T01:27:23.981Z,1.5
2023-05-24T01:33:09.102Z,1.6
2023-05-24T01:38:55.036Z,1.7
2023-05-24T01:44:42.370Z,1.5
2023-05-24T01:50:31.154Z,1.4
2023-05-24T01:56:18.128Z,1.7
2023-05-24T02:02:03.560Z,1.5
2023-05-24T02:07:48.502Z,1.4
2023-05-24T02:13:33.346Z,1.4
2023-05-24T02:19:20.420Z,1.5
2023-05-24T02:25:05.515Z,1.8
2023-05-24T02:30:50.400Z,1.5
2023-05-24T02:36:35.294Z,1.3
2023-05-24T02:42:20.142Z,1.5
2023-05-24T02:48:05.143Z,1.8
2023-05-24T02:53:50.131Z,1.5
2023-05-24T02:59:35.066Z,1.4
2023-05-24T03:05:20.054Z,1.2
2023-05-24T03:11:05.006Z,1.5
2023-05-24T03:16:49.818Z,1.4
2023-05-24T03:22:35.528Z,1.4
2023-05-24T03:28:22.401Z,1.4
2023-05-24T03:34:07.271Z,1.4
2023-05-24T03:39:53.113Z,1.5
2023-05-24T03:45:42.311Z,1.5
2023-05-24T03:51:27.113Z,1.4
2023-05-24T03:57:11.965Z,1.2
2023-05-24T04:02:57.100Z,1.6
2023-05-24T04:08:42.076Z,1.7
2023-05-24T04:14:27.065Z,1.5
2023-05-24T04:20:12.829Z,1.5
2023-05-24T04:25:57.913Z,1.3
2023-05-24T04:31:42.895Z,1.6
2023-05-24T04:37:27.827Z,1.5
2023-05-24T04:43:13.121Z,1.4
2023-05-24T04:48:58.008Z,1.9
2023-05-24T04:54:43.722Z,1.6
2023-05-24T05:00:29.412Z,1.8
2023-05-24T05:06:14.404Z,1.7
2023-05-24T05:11:58.996Z,1.7
2023-05-24T05:17:44.033Z,1.5
2023-05-24T05:23:29.827Z,1.7
2023-05-24T05:29:14.715Z,1.7
2023-05-24T05:34:59.532Z,1.4
2023-05-24T05:40:45.085Z,1.6
2023-05-24T05:46:29.983Z,1.6
2023-05-24T05:52:14.882Z,1.6
2023-05-24T05:57:59.893Z,1.5
2023-05-24T06:03:45.303Z,1.7
2023-05-24T06:09:30.748Z,1.5
2023-05-24T06:15:16.076Z,1.6
2023-05-24T06:21:01.881Z,1.9
2023-05-24T06:26:46.685Z,1.5
2023-05-24T06:32:31.562Z,2
2023-05-24T06:38:16.500Z,1.5
2023-05-24T06:44:01.613Z,1.7
2023-05-24T06:49:46.515Z,1.7
2023-05-24T06:55:31.295Z,1.6
2023-05-24T07:01:16.460Z,1.6
2023-05-24T07:07:01.444Z,1.5
2023-05-24T07:12:46.417Z,1.7
2023-05-24T07:18:32.545Z,1.6
2023-05-24T07:24:18.906Z,1.7
2023-05-24T07:30:03.812Z,1.7
2023-05-24T07:35:51.993Z,1.5
2023-05-24T07:41:36.874Z,1.8
2023-05-24T07:47:21.791Z,1.6
2023-05-24T07:53:06.862Z,1.7
2023-05-24T07:58:51.787Z,1.6
2023-05-24T08:04:37.670Z,1.6
2023-05-24T08:10:22.630Z,1.7
2023-05-24T08:16:07.638Z,1.6
2023-05-24T08:21:52.722Z,1.9
2023-05-24T08:27:37.537Z,1.9
2023-05-24T08:33:22.810Z,2.1
2023-05-24T08:39:07.611Z,2.2
2023-05-24T08:44:54.916Z,1.9
2023-05-24T08:50:39.697Z,1.8
2023-05-24T08:56:26.125Z,2
2023-05-24T09:02:11.568Z,2.1
2023-05-24T09:07:57.937Z,1.8
2023-05-24T09:13:42.948Z,2.1
2023-05-24T09:19:27.834Z,2.1
2023-05-24T09:25:15.301Z,2.1
2023-05-24T09:31:09.899Z,1.9
2023-05-24T09:36:55.180Z,2.1
2023-05-24T09:42:40.054Z,1.9
2023-05-24T09:48:24.976Z,1.9
2023-05-24T09:54:10.996Z,1.7
2023-05-24T09:59:56.771Z,1.7
2023-05-24T10:05:44.576Z,1.7
2023-05-24T10:11:29.391Z,1.7
2023-05-24T10:17:14.791Z,2.3
2023-05-24T10:23:02.214Z,2.5
2023-05-24T10:28:49.714Z,3.3
2023-05-24T10:34:34.844Z,2.4
2023-05-24T10:40:24.061Z,2.1
2023-05-24T10:46:11.621Z,2.3
2023-05-24T10:52:00.818Z,2.2
2023-05-24T10:57:45.882Z,2
2023-05-24T11:03:34.929Z,2.3
2023-05-24T11:09:19.936Z,2.6
2023-05-24T11:15:04.953Z,1.8
2023-05-24T11:20:51.073Z,2.1
2023-05-24T11:26:36.260Z,1.9
2023-05-24T11:32:22.082Z,2.1
2023-05-24T11:38:11.736Z,2.1
2023-05-24T11:43:56.636Z,1.9
2023-05-24T11:49:41.594Z,1.8
2023-05-24T11:55:30.102Z,2.5
2023-05-24T12:01:28.092Z,1.9
2023-05-24T12:07:14.676Z,1.9
2023-05-24T12:12:59.613Z,2.2
2023-05-24T12:19:04.012Z,2
2023-05-24T12:24:51.416Z,2.1
2023-05-24T12:30:39.866Z,2
2023-05-24T12:36:24.849Z,2
2023-05-24T12:42:09.770Z,2.1
2023-05-24T12:47:55.646Z,1.8
2023-05-24T12:53:41.373Z,1.8
2023-05-24T12:59:26.339Z,2.1
2023-05-24T13:05:11.525Z,1.9
2023-05-24T13:10:56.435Z,2.4
2023-05-24T13:16:41.621Z,2.5
2023-05-24T13:22:26.474Z,2.2
2023-05-24T13:28:11.359Z,2.2
2023-05-24T13:33:56.376Z,2.2
2023-05-24T13:39:41.194Z,2.1
2023-05-24T13:45:26.105Z,2.3
2023-05-24T13:51:10.939Z,2.4
2023-05-24T13:56:56.069Z,2.3
2023-05-24T14:02:43.259Z,2.2
2023-05-24T14:08:28.414Z,2.1
2023-05-24T14:20:10.674Z,2.4
2023-05-24T14:25:55.840Z,2.3
2023-05-24T14:31:40.956Z,2.5
2023-05-24T14:37:25.945Z,2.4
2023-05-24T14:43:11.092Z,2.2
2023-05-24T14:48:57.148Z,2
2023-05-24T14:54:49.191Z,2.5
2023-05-24T15:00:34.065Z,2.3
2023-05-24T15:06:18.959Z,2.5
2023-05-24T15:12:03.958Z,2.6
2023-05-24T15:17:48.926Z,2.7
2023-05-24T15:23:33.767Z,2.6
2023-05-24T15:29:19.790Z,2.5
2023-05-24T15:35:04.564Z,2.3
2023-05-24T15:40:49.536Z,2.2
2023-05-24T15:46:34.495Z,2.4
2023-05-24T15:52:19.724Z,2.4
2023-05-24T15:58:04.536Z,2.6
2023-05-24T16:03:49.620Z,2.3
2023-05-24T16:09:34.816Z,2.4
2023-05-24T16:15:19.656Z,2.4
2023-05-24T16:21:04.572Z,2.5
2023-05-24T16:26:51.385Z,2.6
2023-05-24T16:32:36.985Z,2.5
2023-05-24T16:38:22.145Z,2.6
2023-05-24T16:44:07.107Z,3.4
2023-05-24T16:49:51.778Z,9.4
2023-05-24T16:55:36.923Z,8.6
2023-05-24T17:01:22.895Z,10.4
2023-05-24T17:07:08.040Z,9.3
2023-05-24T17:12:52.844Z,10.2
2023-05-24T17:18:37.673Z,9.2
2023-05-24T17:24:22.498Z,9.1
2023-05-24T17:30:08.136Z,8.6
2023-05-24T17:35:52.993Z,8
2023-05-24T17:41:37.994Z,8
2023-05-24T17:47:22.791Z,7.4
2023-05-24T17:53:30.197Z,7.3
2023-05-24T17:59:10.939Z,6.6
2023-05-24T18:04:56.040Z,7.2
2023-05-24T18:10:40.964Z,6.2
2023-05-24T18:16:26.050Z,5.8
2023-05-24T18:22:11.113Z,5.7
2023-05-24T18:27:55.897Z,5.7
2023-05-24T18:33:41.169Z,5.2
2023-05-24T18:39:26.290Z,5.4
2023-05-24T18:45:12.201Z,5.9
2023-05-24T18:50:57.226Z,5.3
2023-05-24T18:56:42.234Z,5.2
2023-05-24T19:02:27.749Z,5.4
2023-05-24T19:08:12.723Z,5
2023-05-24T19:13:57.696Z,5.1
2023-05-24T19:19:42.472Z,5.2
2023-05-24T19:25:27.550Z,4.9
2023-05-24T19:31:12.922Z,4.8
2023-05-24T19:36:57.656Z,4.7
2023-05-24T19:42:42.861Z,4.2
2023-05-24T19:48:27.830Z,4.4
2023-05-24T19:54:12.618Z,4.1
2023-05-24T19:59:57.479Z,4.3
2023-05-24T20:05:42.602Z,4.3
2023-05-24T20:11:27.715Z,3.9
2023-05-24T20:17:12.550Z,4.2
2023-05-24T20:22:57.359Z,3.8
2023-05-24T20:28:42.129Z,3.4
2023-05-24T20:34:28.105Z,3.3
2023-05-24T20:40:14.604Z,3.5
2023-05-24T20:45:59.507Z,3.3
2023-05-24T20:51:44.523Z,3.2
2023-05-24T20:57:29.414Z,3.6
2023-05-24T21:03:14.747Z,3.4
2023-05-24T21:09:00.060Z,3.4
2023-05-24T21:14:45.602Z,3.3
2023-05-24T21:20:30.472Z,3.2
2023-05-24T21:26:15.380Z,2.9
2023-05-24T21:32:00.192Z,3.2
2023-05-24T21:37:45.024Z,2.9
2023-05-24T21:43:29.786Z,2.7
2023-05-24T21:49:14.555Z,2.8
2023-05-24T21:54:59.391Z,2.8
2023-05-24T22:00:44.228Z,2.5
2023-05-24T22:06:28.960Z,2.6
2023-05-24T22:12:13.847Z,3
2023-05-24T22:17:58.768Z,2.8
2023-05-24T22:23:43.625Z,2.4
2023-05-24T22:29:28.394Z,2.4
2023-05-24T22:35:14.508Z,2.4
2023-05-24T22:40:59.397Z,2.7
2023-05-24T22:46:44.325Z,2.7
2023-05-24T22:52:29.268Z,2.7
2023-05-24T22:58:14.040Z,2.8
2023-05-24T23:04:20.238Z,2.6
2023-05-24T23:10:03.342Z,2.4
2023-05-24T23:15:48.426Z,2.6
2023-05-24T23:21:33.206Z,2.5
2023-05-24T23:27:19.033Z,2.7
2023-05-24T23:33:03.948Z,2.7
2023-05-24T23:38:48.790Z,2.3
2023-05-24T23:44:33.667Z,2.6
2023-05-24T23:50:18.464Z,2.5
2023-05-24T23:56:03.318Z,2.2
